Metal, Pennsylvania
Current Conditions -  °F | °C
As of 11:53 AM on Wednesday 26 Nov 2014 (Local Time) from KHGR Reporting Station
Moderate Snow Moderate Snow  
Wind Chill: 27°   Ceiling: 300
Heat Index: 34°   Visibility: 0.5mi
Dew Point: 32°   Wind: 9mph
Humidity: 92%   Direction: 350°N
Pressure: 30.01"   Gusts: NA
Location:  39.9814°N, 77.8809°W
Report Text: KHGR 261653Z 35008KT 1/2SM SN FG BKN003 OVC010 01/00 A3001 RMK AO2 SLP176 P0008 T00110000
Loading
Personal Weather Stations






























Interactive Weather Map New forecast layout! Learn more

10-Day Weather Forecast

Advertisements
Track Severe Weather on mobile